sensor_id;sensor_type;location;lat;lon;timestamp;pressure;altitude;pressure_sealevel;temperature;humidity
47742;BME280;33504;52.066;6.096;2023-05-29T00:01:35;102335.17;;;14.61;40.74
47742;BME280;33504;52.066;6.096;2023-05-29T00:04:01;102339.29;;;14.70;40.56
47742;BME280;33504;52.066;6.096;2023-05-29T00:06:28;102340.50;;;14.69;40.76
47742;BME280;33504;52.066;6.096;2023-05-29T00:08:55;102338.56;;;14.56;41.15
47742;BME280;33504;52.066;6.096;2023-05-29T00:11:22;102341.52;;;13.86;41.52
47742;BME280;33504;52.066;6.096;2023-05-29T00:13:49;102345.96;;;14.25;41.38
47742;BME280;33504;52.066;6.096;2023-05-29T00:16:16;102344.80;;;14.37;41.43
47742;BME280;33504;52.066;6.096;2023-05-29T00:18:42;102344.91;;;14.32;41.49
47742;BME280;33504;52.066;6.096;2023-05-29T00:21:09;102344.57;;;14.25;41.54
47742;BME280;33504;52.066;6.096;2023-05-29T00:23:37;102341.93;;;14.51;41.49
47742;BME280;33504;52.066;6.096;2023-05-29T00:26:03;102347.58;;;13.86;41.89
47742;BME280;33504;52.066;6.096;2023-05-29T00:28:31;102347.02;;;14.11;41.40
47742;BME280;33504;52.066;6.096;2023-05-29T00:30:57;102344.11;;;14.54;41.13
47742;BME280;33504;52.066;6.096;2023-05-29T00:33:25;102349.62;;;14.35;41.04
47742;BME280;33504;52.066;6.096;2023-05-29T00:35:52;102345.03;;;14.41;40.86
47742;BME280;33504;52.066;6.096;2023-05-29T00:38:18;102345.83;;;14.29;41.30
47742;BME280;33504;52.066;6.096;2023-05-29T00:40:45;102344.54;;;14.27;40.94
47742;BME280;33504;52.066;6.096;2023-05-29T00:43:13;102345.87;;;14.21;40.98
47742;BME280;33504;52.066;6.096;2023-05-29T00:45:40;102346.04;;;14.35;41.12
47742;BME280;33504;52.066;6.096;2023-05-29T00:48:07;102342.76;;;14.06;40.81
47742;BME280;33504;52.066;6.096;2023-05-29T00:50:35;102346.43;;;14.35;40.95
47742;BME280;33504;52.066;6.096;2023-05-29T00:53:03;102344.06;;;14.18;40.87
47742;BME280;33504;52.066;6.096;2023-05-29T00:55:31;102347.32;;;14.56;40.58
47742;BME280;33504;52.066;6.096;2023-05-29T00:57:59;102350.56;;;14.06;40.99
47742;BME280;33504;52.066;6.096;2023-05-29T01:00:26;102351.17;;;14.37;40.87
47742;BME280;33504;52.066;6.096;2023-05-29T01:02:54;102355.81;;;14.23;40.68
47742;BME280;33504;52.066;6.096;2023-05-29T01:05:22;102359.95;;;14.31;40.87
47742;BME280;33504;52.066;6.096;2023-05-29T01:07:49;102359.67;;;14.02;40.88
47742;BME280;33504;52.066;6.096;2023-05-29T01:10:16;102357.45;;;14.23;40.92
47742;BME280;33504;52.066;6.096;2023-05-29T01:12:47;102359.48;;;14.14;41.05
47742;BME280;33504;52.066;6.096;2023-05-29T01:15:24;102365.03;;;14.01;40.80
47742;BME280;33504;52.066;6.096;2023-05-29T01:18:12;102365.53;;;14.32;40.64
47742;BME280;33504;52.066;6.096;2023-05-29T01:20:48;102366.76;;;14.04;40.71
47742;BME280;33504;52.066;6.096;2023-05-29T01:24:19;102372.47;;;14.05;41.17
47742;BME280;33504;52.066;6.096;2023-05-29T01:26:52;102376.32;;;13.87;41.49
47742;BME280;33504;52.066;6.096;2023-05-29T01:29:24;102380.00;;;14.06;40.96
47742;BME280;33504;52.066;6.096;2023-05-29T01:31:53;102381.34;;;13.98;41.14
47742;BME280;33504;52.066;6.096;2023-05-29T01:34:20;102383.97;;;13.75;40.90
47742;BME280;33504;52.066;6.096;2023-05-29T01:36:47;102383.21;;;13.75;40.87
47742;BME280;33504;52.066;6.096;2023-05-29T01:39:15;102384.76;;;13.98;40.90
47742;BME280;33504;52.066;6.096;2023-05-29T01:41:43;102384.86;;;13.97;41.03
47742;BME280;33504;52.066;6.096;2023-05-29T01:44:12;102388.90;;;13.94;41.03
47742;BME280;33504;52.066;6.096;2023-05-29T01:46:41;102388.08;;;13.47;41.27
47742;BME280;33504;52.066;6.096;2023-05-29T01:49:09;102386.61;;;13.72;41.28
47742;BME280;33504;52.066;6.096;2023-05-29T01:51:37;102383.38;;;13.78;41.08
47742;BME280;33504;52.066;6.096;2023-05-29T01:54:05;102386.16;;;13.65;41.40
47742;BME280;33504;52.066;6.096;2023-05-29T01:56:33;102388.60;;;13.81;41.11
47742;BME280;33504;52.066;6.096;2023-05-29T01:59:02;102389.54;;;13.58;41.47
47742;BME280;33504;52.066;6.096;2023-05-29T02:01:30;102391.44;;;13.61;41.87
47742;BME280;33504;52.066;6.096;2023-05-29T02:03:57;102393.33;;;13.13;41.76
47742;BME280;33504;52.066;6.096;2023-05-29T02:06:24;102399.32;;;13.38;41.88
47742;BME280;33504;52.066;6.096;2023-05-29T02:08:51;102398.97;;;13.35;41.87
47742;BME280;33504;52.066;6.096;2023-05-29T02:11:18;102394.72;;;13.30;41.84
47742;BME280;33504;52.066;6.096;2023-05-29T02:13:45;102397.09;;;13.00;41.89
47742;BME280;33504;52.066;6.096;2023-05-29T02:16:11;102398.51;;;13.29;41.86
47742;BME280;33504;52.066;6.096;2023-05-29T02:18:38;102401.82;;;13.22;42.38
47742;BME280;33504;52.066;6.096;2023-05-29T02:21:05;102402.33;;;13.32;42.27
47742;BME280;33504;52.066;6.096;2023-05-29T02:23:32;102399.78;;;13.09;42.21
47742;BME280;33504;52.066;6.096;2023-05-29T02:25:59;102396.83;;;13.07;42.24
47742;BME280;33504;52.066;6.096;2023-05-29T02:28:25;102393.69;;;13.60;42.11
47742;BME280;33504;52.066;6.096;2023-05-29T02:30:52;102386.98;;;13.37;42.01
47742;BME280;33504;52.066;6.096;2023-05-29T02:33:20;102383.88;;;13.21;42.44
47742;BME280;33504;52.066;6.096;2023-05-29T02:35:47;102379.77;;;13.64;42.06
47742;BME280;33504;52.066;6.096;2023-05-29T02:38:13;102375.89;;;13.14;42.00
47742;BME280;33504;52.066;6.096;2023-05-29T02:40:40;102376.34;;;13.65;41.88
47742;BME280;33504;52.066;6.096;2023-05-29T02:43:09;102380.20;;;13.61;41.99
47742;BME280;33504;52.066;6.096;2023-05-29T02:45:36;102383.31;;;13.12;41.96
47742;BME280;33504;52.066;6.096;2023-05-29T02:48:03;102392.45;;;13.15;41.93
47742;BME280;33504;52.066;6.096;2023-05-29T02:50:30;102391.02;;;12.96;42.19
47742;BME280;33504;52.066;6.096;2023-05-29T02:52:57;102392.01;;;13.00;42.06
47742;BME280;33504;52.066;6.096;2023-05-29T02:55:23;102387.63;;;12.93;42.21
47742;BME280;33504;52.066;6.096;2023-05-29T02:57:51;102386.43;;;13.11;42.22
47742;BME280;33504;52.066;6.096;2023-05-29T03:00:18;102390.52;;;12.74;42.47
47742;BME280;33504;52.066;6.096;2023-05-29T03:02:45;102399.87;;;13.13;42.72
47742;BME280;33504;52.066;6.096;2023-05-29T03:05:12;102405.64;;;13.24;42.32
47742;BME280;33504;52.066;6.096;2023-05-29T03:07:39;102402.73;;;13.21;42.42
47742;BME280;33504;52.066;6.096;2023-05-29T03:10:06;102405.87;;;12.96;42.40
47742;BME280;33504;52.066;6.096;2023-05-29T03:12:33;102405.37;;;13.31;42.18
47742;BME280;33504;52.066;6.096;2023-05-29T03:15:00;102410.21;;;12.75;42.35
47742;BME280;33504;52.066;6.096;2023-05-29T03:17:27;102408.60;;;12.74;42.24
47742;BME280;33504;52.066;6.096;2023-05-29T03:19:54;102405.76;;;12.76;42.54
47742;BME280;33504;52.066;6.096;2023-05-29T03:22:21;102405.89;;;12.62;42.73
47742;BME280;33504;52.066;6.096;2023-05-29T03:24:47;102402.82;;;12.69;43.08
47742;BME280;33504;52.066;6.096;2023-05-29T03:27:15;102400.86;;;11.87;44.45
47742;BME280;33504;52.066;6.096;2023-05-29T03:29:42;102401.55;;;12.18;44.03
47742;BME280;33504;52.066;6.096;2023-05-29T03:32:09;102399.39;;;12.50;43.35
47742;BME280;33504;52.066;6.096;2023-05-29T03:34:36;102396.04;;;12.45;43.43
47742;BME280;33504;52.066;6.096;2023-05-29T03:37:03;102396.67;;;12.66;43.06
47742;BME280;33504;52.066;6.096;2023-05-29T03:39:31;102395.73;;;12.67;42.90
47742;BME280;33504;52.066;6.096;2023-05-29T03:41:58;102397.13;;;12.57;43.26
47742;BME280;33504;52.066;6.096;2023-05-29T03:44:25;102398.58;;;12.96;42.77
47742;BME280;33504;52.066;6.096;2023-05-29T03:46:52;102399.87;;;12.72;42.83
47742;BME280;33504;52.066;6.096;2023-05-29T03:49:19;102404.10;;;12.43;42.81
47742;BME280;33504;52.066;6.096;2023-05-29T03:51:46;102410.82;;;12.79;42.54
47742;BME280;33504;52.066;6.096;2023-05-29T03:54:13;102410.18;;;12.66;42.87
47742;BME280;33504;52.066;6.096;2023-05-29T03:56:40;102408.93;;;12.64;42.94
47742;BME280;33504;52.066;6.096;2023-05-29T03:59:08;102413.89;;;12.68;42.80
47742;BME280;33504;52.066;6.096;2023-05-29T04:01:35;102414.65;;;12.59;42.99
47742;BME280;33504;52.066;6.096;2023-05-29T04:04:02;102415.58;;;12.70;42.78
47742;BME280;33504;52.066;6.096;2023-05-29T04:06:28;102420.32;;;12.59;42.86
47742;BME280;33504;52.066;6.096;2023-05-29T04:08:55;102423.92;;;12.62;42.39
47742;BME280;33504;52.066;6.096;2023-05-29T04:11:22;102425.49;;;12.60;42.19
47742;BME280;33504;52.066;6.096;2023-05-29T04:13:49;102424.50;;;12.89;41.90
47742;BME280;33504;52.066;6.096;2023-05-29T04:16:16;102432.84;;;12.64;42.16
47742;BME280;33504;52.066;6.096;2023-05-29T04:18:43;102428.67;;;12.53;42.53
47742;BME280;33504;52.066;6.096;2023-05-29T04:21:10;102429.68;;;12.64;42.48
47742;BME280;33504;52.066;6.096;2023-05-29T04:23:37;102428.23;;;12.50;42.34
47742;BME280;33504;52.066;6.096;2023-05-29T04:26:04;102429.36;;;12.88;42.21
47742;BME280;33504;52.066;6.096;2023-05-29T04:28:31;102429.46;;;12.82;42.45
47742;BME280;33504;52.066;6.096;2023-05-29T04:30:58;102425.55;;;12.59;42.53
47742;BME280;33504;52.066;6.096;2023-05-29T04:33:26;102421.30;;;12.78;42.79
47742;BME280;33504;52.066;6.096;2023-05-29T04:35:52;102419.87;;;12.62;42.55
47742;BME280;33504;52.066;6.096;2023-05-29T04:38:19;102423.88;;;12.93;42.52
47742;BME280;33504;52.066;6.096;2023-05-29T04:40:46;102427.26;;;12.50;42.38
47742;BME280;33504;52.066;6.096;2023-05-29T04:43:13;102439.36;;;12.82;42.29
47742;BME280;33504;52.066;6.096;2023-05-29T04:45:40;102447.65;;;13.05;42.55
47742;BME280;33504;52.066;6.096;2023-05-29T04:48:06;102452.00;;;12.79;42.34
47742;BME280;33504;52.066;6.096;2023-05-29T04:50:34;102459.85;;;12.78;42.46
47742;BME280;33504;52.066;6.096;2023-05-29T04:53:01;102462.24;;;12.90;42.20
47742;BME280;33504;52.066;6.096;2023-05-29T04:55:28;102463.88;;;12.76;42.57
47742;BME280;33504;52.066;6.096;2023-05-29T04:57:54;102461.97;;;12.65;42.29
47742;BME280;33504;52.066;6.096;2023-05-29T05:00:22;102464.53;;;13.09;42.90
47742;BME280;33504;52.066;6.096;2023-05-29T05:02:49;102464.92;;;12.46;43.14
47742;BME280;33504;52.066;6.096;2023-05-29T05:05:16;102466.36;;;12.88;42.83
47742;BME280;33504;52.066;6.096;2023-05-29T05:07:43;102466.23;;;12.60;42.86
47742;BME280;33504;52.066;6.096;2023-05-29T05:10:11;102467.92;;;12.68;42.52
47742;BME280;33504;52.066;6.096;2023-05-29T05:12:38;102470.66;;;12.85;42.92
47742;BME280;33504;52.066;6.096;2023-05-29T05:15:06;102471.21;;;12.77;42.82
47742;BME280;33504;52.066;6.096;2023-05-29T05:17:34;102473.53;;;12.21;42.97
47742;BME280;33504;52.066;6.096;2023-05-29T05:20:00;102470.02;;;12.84;42.61
47742;BME280;33504;52.066;6.096;2023-05-29T05:22:27;102466.18;;;12.43;43.00
47742;BME280;33504;52.066;6.096;2023-05-29T05:24:55;102463.29;;;12.63;43.10
47742;BME280;33504;52.066;6.096;2023-05-29T05:27:21;102465.52;;;12.81;42.63
47742;BME280;33504;52.066;6.096;2023-05-29T05:29:48;102463.24;;;13.12;42.18
47742;BME280;33504;52.066;6.096;2023-05-29T05:32:15;102463.84;;;12.95;42.79
47742;BME280;33504;52.066;6.096;2023-05-29T05:34:42;102465.87;;;13.32;42.17
47742;BME280;33504;52.066;6.096;2023-05-29T05:37:09;102465.22;;;12.96;41.78
47742;BME280;33504;52.066;6.096;2023-05-29T05:39:35;102464.76;;;12.95;41.68
47742;BME280;33504;52.066;6.096;2023-05-29T05:42:03;102468.06;;;13.26;41.84
47742;BME280;33504;52.066;6.096;2023-05-29T05:44:30;102470.05;;;13.25;41.24
47742;BME280;33504;52.066;6.096;2023-05-29T05:46:58;102469.11;;;13.21;41.70
47742;BME280;33504;52.066;6.096;2023-05-29T05:49:25;102475.57;;;13.09;41.66
47742;BME280;33504;52.066;6.096;2023-05-29T05:51:52;102475.97;;;13.58;40.99
47742;BME280;33504;52.066;6.096;2023-05-29T05:54:20;102476.88;;;13.02;41.47
47742;BME280;33504;52.066;6.096;2023-05-29T05:56:47;102475.71;;;13.14;41.25
47742;BME280;33504;52.066;6.096;2023-05-29T05:59:13;102472.27;;;13.05;41.98
47742;BME280;33504;52.066;6.096;2023-05-29T06:01:41;102473.85;;;13.13;41.16
47742;BME280;33504;52.066;6.096;2023-05-29T06:04:08;102477.66;;;13.47;40.96
47742;BME280;33504;52.066;6.096;2023-05-29T06:06:35;102474.17;;;13.85;40.25
47742;BME280;33504;52.066;6.096;2023-05-29T06:09:03;102473.51;;;13.42;40.60
47742;BME280;33504;52.066;6.096;2023-05-29T06:11:29;102476.59;;;13.42;40.36
47742;BME280;33504;52.066;6.096;2023-05-29T06:13:56;102474.73;;;14.16;39.52
47742;BME280;33504;52.066;6.096;2023-05-29T06:16:23;102476.30;;;13.23;40.05
47742;BME280;33504;52.066;6.096;2023-05-29T06:18:50;102469.76;;;13.95;39.50
47742;BME280;33504;52.066;6.096;2023-05-29T06:21:17;102472.29;;;13.86;39.55
47742;BME280;33504;52.066;6.096;2023-05-29T06:23:44;102476.72;;;13.41;40.73
47742;BME280;33504;52.066;6.096;2023-05-29T06:26:10;102478.34;;;13.57;40.20
47742;BME280;33504;52.066;6.096;2023-05-29T06:28:38;102478.98;;;14.09;39.62
47742;BME280;33504;52.066;6.096;2023-05-29T06:31:04;102479.26;;;14.34;39.35
47742;BME280;33504;52.066;6.096;2023-05-29T06:33:31;102478.08;;;13.55;39.73
47742;BME280;33504;52.066;6.096;2023-05-29T06:35:58;102482.20;;;13.49;39.95
47742;BME280;33504;52.066;6.096;2023-05-29T06:38:25;102481.94;;;14.07;38.82
47742;BME280;33504;52.066;6.096;2023-05-29T06:40:51;102480.85;;;14.74;38.36
47742;BME280;33504;52.066;6.096;2023-05-29T06:43:18;102481.92;;;14.53;38.53
47742;BME280;33504;52.066;6.096;2023-05-29T06:45:45;102479.61;;;14.59;38.57
47742;BME280;33504;52.066;6.096;2023-05-29T06:48:12;102479.63;;;14.73;38.27
47742;BME280;33504;52.066;6.096;2023-05-29T06:50:40;102482.32;;;15.04;37.73
47742;BME280;33504;52.066;6.096;2023-05-29T06:53:06;102490.72;;;14.84;37.52
47742;BME280;33504;52.066;6.096;2023-05-29T06:55:34;102490.17;;;14.67;37.75
47742;BME280;33504;52.066;6.096;2023-05-29T06:58:01;102488.63;;;15.35;37.46
47742;BME280;33504;52.066;6.096;2023-05-29T07:00:27;102494.70;;;15.36;37.65
47742;BME280;33504;52.066;6.096;2023-05-29T07:02:54;102490.75;;;15.78;36.84
47742;BME280;33504;52.066;6.096;2023-05-29T07:05:21;102488.91;;;15.83;36.55
47742;BME280;33504;52.066;6.096;2023-05-29T07:07:48;102490.90;;;15.86;36.19
47742;BME280;33504;52.066;6.096;2023-05-29T07:10:15;102492.09;;;14.92;36.74
47742;BME280;33504;52.066;6.096;2023-05-29T07:12:41;102489.08;;;15.24;36.16
47742;BME280;33504;52.066;6.096;2023-05-29T07:15:09;102492.19;;;15.64;35.49
47742;BME280;33504;52.066;6.096;2023-05-29T07:17:36;102496.23;;;16.01;35.68
47742;BME280;33504;52.066;6.096;2023-05-29T07:20:03;102497.20;;;16.09;35.71
47742;BME280;33504;52.066;6.096;2023-05-29T07:22:30;102497.94;;;15.93;35.70
47742;BME280;33504;52.066;6.096;2023-05-29T07:24:57;102494.18;;;16.28;35.21
47742;BME280;33504;52.066;6.096;2023-05-29T07:27:24;102498.99;;;16.22;34.43
47742;BME280;33504;52.066;6.096;2023-05-29T07:29:51;102501.93;;;16.56;35.00
47742;BME280;33504;52.066;6.096;2023-05-29T07:32:18;102500.65;;;16.59;34.76
47742;BME280;33504;52.066;6.096;2023-05-29T07:34:45;102499.84;;;16.63;34.41
47742;BME280;33504;52.066;6.096;2023-05-29T07:37:12;102504.12;;;17.11;34.50
47742;BME280;33504;52.066;6.096;2023-05-29T07:39:38;102503.09;;;17.73;33.62
47742;BME280;33504;52.066;6.096;2023-05-29T07:42:05;102508.94;;;17.40;34.39
47742;BME280;33504;52.066;6.096;2023-05-29T07:44:32;102507.37;;;17.09;33.27
47742;BME280;33504;52.066;6.096;2023-05-29T07:46:59;102504.21;;;17.25;32.99
47742;BME280;33504;52.066;6.096;2023-05-29T07:49:26;102510.68;;;17.38;32.83
47742;BME280;33504;52.066;6.096;2023-05-29T07:51:52;102509.97;;;17.27;33.50
47742;BME280;33504;52.066;6.096;2023-05-29T07:54:19;102514.20;;;16.97;33.38
47742;BME280;33504;52.066;6.096;2023-05-29T07:56:46;102517.36;;;17.62;32.92
47742;BME280;33504;52.066;6.096;2023-05-29T07:59:13;102510.50;;;17.92;32.10
47742;BME280;33504;52.066;6.096;2023-05-29T08:01:41;102510.51;;;17.50;32.14
47742;BME280;33504;52.066;6.096;2023-05-29T08:04:07;102506.83;;;17.97;31.57
47742;BME280;33504;52.066;6.096;2023-05-29T08:06:34;102509.28;;;18.09;31.56
47742;BME280;33504;52.066;6.096;2023-05-29T08:09:01;102509.40;;;17.88;31.66
47742;BME280;33504;52.066;6.096;2023-05-29T08:11:29;102507.28;;;17.85;31.52
47742;BME280;33504;52.066;6.096;2023-05-29T08:13:57;102509.95;;;18.36;31.25
47742;BME280;33504;52.066;6.096;2023-05-29T08:16:24;102508.00;;;18.10;30.86
47742;BME280;33504;52.066;6.096;2023-05-29T08:18:52;102514.84;;;18.03;30.16
47742;BME280;33504;52.066;6.096;2023-05-29T08:21:19;102508.45;;;18.01;30.99
47742;BME280;33504;52.066;6.096;2023-05-29T08:23:46;102512.56;;;18.16;31.08
47742;BME280;33504;52.066;6.096;2023-05-29T08:26:13;102507.25;;;18.65;30.66
47742;BME280;33504;52.066;6.096;2023-05-29T08:28:39;102513.45;;;18.56;30.58
47742;BME280;33504;52.066;6.096;2023-05-29T08:31:06;102518.60;;;18.12;31.01
47742;BME280;33504;52.066;6.096;2023-05-29T08:33:33;102513.60;;;18.50;30.88
47742;BME280;33504;52.066;6.096;2023-05-29T08:36:00;102518.09;;;19.03;31.15
47742;BME280;33504;52.066;6.096;2023-05-29T08:38:27;102513.80;;;19.26;30.39
47742;BME280;33504;52.066;6.096;2023-05-29T08:40:55;102518.98;;;19.50;29.88
47742;BME280;33504;52.066;6.096;2023-05-29T08:43:24;102518.01;;;19.44;29.79
47742;BME280;33504;52.066;6.096;2023-05-29T08:45:54;102513.39;;;19.56;29.82
47742;BME280;33504;52.066;6.096;2023-05-29T08:48:23;102513.56;;;19.93;29.62
47742;BME280;33504;52.066;6.096;2023-05-29T08:50:53;102518.91;;;20.18;29.24
47742;BME280;33504;52.066;6.096;2023-05-29T08:53:21;102517.68;;;20.34;28.91
47742;BME280;33504;52.066;6.096;2023-05-29T08:55:49;102514.72;;;20.10;28.59
47742;BME280;33504;52.066;6.096;2023-05-29T08:58:16;102513.54;;;20.13;28.62
47742;BME280;33504;52.066;6.096;2023-05-29T09:00:44;102515.93;;;19.82;28.37
47742;BME280;33504;52.066;6.096;2023-05-29T09:03:12;102518.29;;;20.29;28.85
47742;BME280;33504;52.066;6.096;2023-05-29T09:05:40;102515.34;;;19.91;28.36
47742;BME280;33504;52.066;6.096;2023-05-29T09:08:08;102520.44;;;20.23;28.56
47742;BME280;33504;52.066;6.096;2023-05-29T09:10:36;102518.23;;;20.27;28.51
47742;BME280;33504;52.066;6.096;2023-05-29T09:13:03;102525.73;;;20.51;28.46
47742;BME280;33504;52.066;6.096;2023-05-29T09:15:31;102520.91;;;20.44;28.34
47742;BME280;33504;52.066;6.096;2023-05-29T09:17:58;102521.70;;;20.57;28.43
47742;BME280;33504;52.066;6.096;2023-05-29T09:20:26;102523.65;;;20.37;28.31
47742;BME280;33504;52.066;6.096;2023-05-29T09:22:54;102521.29;;;20.46;28.68
47742;BME280;33504;52.066;6.096;2023-05-29T09:25:23;102523.80;;;20.29;28.51
47742;BME280;33504;52.066;6.096;2023-05-29T09:27:52;102522.57;;;20.64;28.60
47742;BME280;33504;52.066;6.096;2023-05-29T09:30:31;102523.86;;;21.05;28.13
47742;BME280;33504;52.066;6.096;2023-05-29T09:32:59;102518.70;;;20.99;27.96
47742;BME280;33504;52.066;6.096;2023-05-29T09:35:27;102514.46;;;21.14;27.88
47742;BME280;33504;52.066;6.096;2023-05-29T09:37:59;102512.88;;;21.26;27.49
47742;BME280;33504;52.066;6.096;2023-05-29T09:40:26;102514.31;;;20.32;28.04
47742;BME280;33504;52.066;6.096;2023-05-29T09:42:53;102517.20;;;20.96;28.14
47742;BME280;33504;52.066;6.096;2023-05-29T09:45:21;102510.45;;;21.25;27.82
47742;BME280;33504;52.066;6.096;2023-05-29T09:47:51;102512.35;;;21.74;27.47
47742;BME280;33504;52.066;6.096;2023-05-29T09:50:18;102519.15;;;21.63;27.15
47742;BME280;33504;52.066;6.096;2023-05-29T09:52:45;102515.68;;;21.36;27.18
47742;BME280;33504;52.066;6.096;2023-05-29T09:55:13;102515.73;;;21.68;26.74
47742;BME280;33504;52.066;6.096;2023-05-29T09:57:41;102516.85;;;22.14;27.12
47742;BME280;33504;52.066;6.096;2023-05-29T10:00:10;102510.50;;;21.80;26.91
47742;BME280;33504;52.066;6.096;2023-05-29T10:02:38;102513.14;;;21.49;26.75
47742;BME280;33504;52.066;6.096;2023-05-29T10:05:06;102516.72;;;21.67;26.49
47742;BME280;33504;52.066;6.096;2023-05-29T10:07:35;102516.01;;;22.03;26.31
47742;BME280;33504;52.066;6.096;2023-05-29T10:10:05;102522.04;;;22.01;26.05
47742;BME280;33504;52.066;6.096;2023-05-29T10:12:36;102516.26;;;21.67;26.36
47742;BME280;33504;52.066;6.096;2023-05-29T10:15:10;102514.71;;;22.00;26.30
47742;BME280;33504;52.066;6.096;2023-05-29T10:17:38;102508.20;;;22.15;26.43
47742;BME280;33504;52.066;6.096;2023-05-29T10:20:09;102505.88;;;21.91;25.73
47742;BME280;33504;52.066;6.096;2023-05-29T10:22:42;102509.80;;;22.40;25.65
47742;BME280;33504;52.066;6.096;2023-05-29T10:25:13;102499.29;;;22.02;26.27
47742;BME280;33504;52.066;6.096;2023-05-29T10:27:40;102500.03;;;22.57;24.73
47742;BME280;33504;52.066;6.096;2023-05-29T10:30:12;102506.16;;;22.29;24.81
47742;BME280;33504;52.066;6.096;2023-05-29T10:32:52;102503.25;;;21.58;25.05
47742;BME280;33504;52.066;6.096;2023-05-29T10:35:27;102491.81;;;22.46;25.61
47742;BME280;33504;52.066;6.096;2023-05-29T10:37:59;102502.90;;;22.33;24.42
47742;BME280;33504;52.066;6.096;2023-05-29T10:40:29;102500.52;;;22.58;24.35
47742;BME280;33504;52.066;6.096;2023-05-29T10:42:57;102501.67;;;22.95;24.06
47742;BME280;33504;52.066;6.096;2023-05-29T10:45:53;102500.28;;;22.44;24.13
47742;BME280;33504;52.066;6.096;2023-05-29T10:48:44;102499.46;;;22.99;24.11
47742;BME280;33504;52.066;6.096;2023-05-29T10:51:27;102495.08;;;22.42;23.69
47742;BME280;33504;52.066;6.096;2023-05-29T10:53:55;102493.46;;;21.92;24.27
47742;BME280;33504;52.066;6.096;2023-05-29T10:56:27;102486.31;;;22.37;25.33
47742;BME280;33504;52.066;6.096;2023-05-29T10:58:57;102488.00;;;22.41;25.27
47742;BME280;33504;52.066;6.096;2023-05-29T11:01:28;102482.93;;;22.84;24.35
47742;BME280;33504;52.066;6.096;2023-05-29T11:04:26;102482.70;;;22.48;23.73
47742;BME280;33504;52.066;6.096;2023-05-29T11:06:53;102481.15;;;23.08;24.37
47742;BME280;33504;52.066;6.096;2023-05-29T11:09:29;102486.02;;;23.61;23.60
47742;BME280;33504;52.066;6.096;2023-05-29T11:12:28;102476.94;;;23.68;23.06
47742;BME280;33504;52.066;6.096;2023-05-29T11:15:03;102477.16;;;23.40;23.74
47742;BME280;33504;52.066;6.096;2023-05-29T11:17:43;102472.01;;;23.80;24.22
47742;BME280;33504;52.066;6.096;2023-05-29T11:20:17;102469.13;;;23.54;23.71
47742;BME280;33504;52.066;6.096;2023-05-29T11:23:00;102469.11;;;23.90;23.97
47742;BME280;33504;52.066;6.096;2023-05-29T11:25:28;102469.67;;;24.10;23.56
47742;BME280;33504;52.066;6.096;2023-05-29T11:27:55;102474.94;;;24.26;23.27
47742;BME280;33504;52.066;6.096;2023-05-29T11:30:23;102478.37;;;24.68;23.45
47742;BME280;33504;52.066;6.096;2023-05-29T11:32:52;102473.12;;;24.11;23.46
47742;BME280;33504;52.066;6.096;2023-05-29T11:35:21;102476.30;;;24.64;23.64
47742;BME280;33504;52.066;6.096;2023-05-29T11:37:48;102471.42;;;24.79;22.27
47742;BME280;33504;52.066;6.096;2023-05-29T11:40:16;102475.56;;;24.48;22.43
47742;BME280;33504;52.066;6.096;2023-05-29T11:42:45;102474.05;;;24.35;22.53
47742;BME280;33504;52.066;6.096;2023-05-29T11:45:13;102467.70;;;24.31;22.45
47742;BME280;33504;52.066;6.096;2023-05-29T11:47:58;102466.98;;;24.58;22.52
47742;BME280;33504;52.066;6.096;2023-05-29T11:50:27;102472.13;;;23.20;22.73
47742;BME280;33504;52.066;6.096;2023-05-29T11:52:57;102469.10;;;23.25;22.60
47742;BME280;33504;52.066;6.096;2023-05-29T11:55:24;102470.39;;;23.57;22.60
47742;BME280;33504;52.066;6.096;2023-05-29T11:57:58;102468.91;;;23.90;23.83
47742;BME280;33504;52.066;6.096;2023-05-29T12:00:30;102469.47;;;23.64;23.25
47742;BME280;33504;52.066;6.096;2023-05-29T12:02:58;102472.04;;;23.42;23.46
47742;BME280;33504;52.066;6.096;2023-05-29T12:05:25;102465.87;;;24.04;23.22
47742;BME280;33504;52.066;6.096;2023-05-29T12:07:54;102462.45;;;23.96;22.51
47742;BME280;33504;52.066;6.096;2023-05-29T12:10:22;102461.75;;;23.48;22.40
47742;BME280;33504;52.066;6.096;2023-05-29T12:12:51;102457.38;;;23.56;22.70
47742;BME280;33504;52.066;6.096;2023-05-29T12:15:19;102453.86;;;24.62;22.51
47742;BME280;33504;52.066;6.096;2023-05-29T12:17:46;102460.98;;;24.09;22.28
47742;BME280;33504;52.066;6.096;2023-05-29T12:20:14;102457.84;;;24.45;21.90
47742;BME280;33504;52.066;6.096;2023-05-29T12:22:42;102452.56;;;24.43;21.31
47742;BME280;33504;52.066;6.096;2023-05-29T12:25:12;102460.78;;;24.86;21.09
47742;BME280;33504;52.066;6.096;2023-05-29T12:27:41;102464.06;;;24.76;20.70
47742;BME280;33504;52.066;6.096;2023-05-29T12:30:09;102460.31;;;25.03;20.42
47742;BME280;33504;52.066;6.096;2023-05-29T12:32:37;102459.10;;;24.61;20.37
47742;BME280;33504;52.066;6.096;2023-05-29T12:35:13;102459.86;;;24.62;21.23
47742;BME280;33504;52.066;6.096;2023-05-29T12:37:49;102456.99;;;25.35;21.11
47742;BME280;33504;52.066;6.096;2023-05-29T12:40:19;102463.32;;;24.99;20.85
47742;BME280;33504;52.066;6.096;2023-05-29T12:42:47;102462.80;;;25.07;20.69
47742;BME280;33504;52.066;6.096;2023-05-29T12:45:17;102456.66;;;24.86;21.51
47742;BME280;33504;52.066;6.096;2023-05-29T12:47:45;102460.51;;;24.92;21.71
47742;BME280;33504;52.066;6.096;2023-05-29T12:50:22;102464.36;;;25.43;22.02
47742;BME280;33504;52.066;6.096;2023-05-29T12:52:54;102461.92;;;25.51;21.13
47742;BME280;33504;52.066;6.096;2023-05-29T12:55:21;102465.52;;;25.38;20.42
47742;BME280;33504;52.066;6.096;2023-05-29T12:57:49;102458.80;;;25.17;20.71